Time;durP1;ratioP1;P1;durP2;ratioP2;P2;SDS_P1;SDS_P2;PMS_P1;PMS_P2;Temp;Humidity;BMP_temperature;BMP_pressure;BME280_temperature;BME280_humidity;BME280_pressure;Samples;Min_cycle;Max_cycle;Signal;HPM_P1;HPM_P2
2023/04/25 00:00:53;;;;;;;10.75;5.60;;;;;;;;;;4992816;28;20430;-81
2023/04/25 00:03:26;;;;;;;10.57;5.80;;;;;;;;;;4992316;28;20438;-81
2023/04/25 00:06:02;;;;;;;8.73;4.00;;;;;;;;;;5006889;28;20903;-83
2023/04/25 00:08:35;;;;;;;5.70;2.20;;;;;;;;;;5008958;28;20485;-80
2023/04/25 00:11:07;;;;;;;4.45;1.88;;;;;;;;;;5005861;28;20438;-82
2023/04/25 00:13:35;;;;;;;5.13;2.05;;;;;;;;;;5011438;28;20882;-82
2023/04/25 00:16:04;;;;;;;5.10;1.92;;;;;;;;;;4991640;28;20426;-80
2023/04/25 00:18:33;;;;;;;6.82;2.30;;;;;;;;;;4991917;28;20430;-81
2023/04/25 00:21:02;;;;;;;6.53;2.58;;;;;;;;;;4994102;28;20422;-81
2023/04/25 00:23:30;;;;;;;5.90;2.70;;;;;;;;;;4985858;28;20430;-82
2023/04/25 00:25:58;;;;;;;6.00;2.75;;;;;;;;;;4993790;28;20782;-82
2023/04/25 00:28:25;;;;;;;7.43;3.33;;;;;;;;;;4990951;28;20438;-83
2023/04/25 00:30:58;;;;;;;7.47;3.88;;;;;;;;;;5003937;28;20432;-81
2023/04/25 00:33:26;;;;;;;9.45;4.78;;;;;;;;;;4993071;28;20887;-82
2023/04/25 00:35:54;;;;;;;10.90;4.80;;;;;;;;;;5005640;28;20415;-82
2023/04/25 00:38:23;;;;;;;10.45;5.47;;;;;;;;;;5006390;28;20811;-83
2023/04/25 00:40:52;;;;;;;11.87;7.10;;;;;;;;;;4992457;28;20439;-82
2023/04/25 00:43:20;;;;;;;11.68;6.72;;;;;;;;;;4991226;28;20441;-81
2023/04/25 00:45:53;;;;;;;14.10;6.85;;;;;;;;;;4992506;28;20437;-83
2023/04/25 00:48:22;;;;;;;12.90;6.50;;;;;;;;;;4992159;28;20915;-83
2023/04/25 00:50:52;;;;;;;10.80;5.93;;;;;;;;;;5008216;28;20423;-81
2023/04/25 00:53:20;;;;;;;13.10;5.97;;;;;;;;;;4991282;28;20442;-84
2023/04/25 00:55:50;;;;;;;11.57;5.68;;;;;;;;;;5014451;28;20425;-83
2023/04/25 00:58:18;;;;;;;11.65;5.07;;;;;;;;;;5000345;28;20907;-83
2023/04/25 01:00:47;;;;;;;12.30;4.93;;;;;;;;;;4992683;28;20426;-83
2023/04/25 01:03:20;;;;;;;9.32;3.70;;;;;;;;;;4993820;28;20434;-82
2023/04/25 01:05:48;;;;;;;10.30;3.83;;;;;;;;;;4998673;28;20438;-82
2023/04/25 01:08:16;;;;;;;12.95;3.60;;;;;;;;;;4992023;28;20906;-82
2023/04/25 01:10:43;;;;;;;14.82;4.03;;;;;;;;;;4990339;28;20985;-83
2023/04/25 01:13:12;;;;;;;14.98;3.47;;;;;;;;;;5007217;28;20425;-83
2023/04/25 01:15:40;;;;;;;12.20;2.97;;;;;;;;;;5009368;28;20434;-82
2023/04/25 01:18:08;;;;;;;15.10;3.25;;;;;;;;;;4990872;28;20434;-83
2023/04/25 01:20:38;;;;;;;15.00;3.33;;;;;;;;;;4996215;28;20426;-83
2023/04/25 01:23:07;;;;;;;12.15;3.08;;;;;;;;;;5005403;28;20434;-84
2023/04/25 01:25:35;;;;;;;14.82;3.30;;;;;;;;;;5009969;28;20433;-84
2023/04/25 01:28:03;;;;;;;12.63;2.88;;;;;;;;;;4989771;28;20431;-84
2023/04/25 01:30:36;;;;;;;16.95;3.50;;;;;;;;;;4990577;28;20426;-83
2023/04/25 01:33:06;;;;;;;11.53;3.40;;;;;;;;;;4992144;28;20426;-81
2023/04/25 01:35:33;;;;;;;13.68;3.13;;;;;;;;;;4994288;28;20407;-83
2023/04/25 01:38:02;;;;;;;17.92;3.30;;;;;;;;;;4992906;28;20434;-81
2023/04/25 01:40:31;;;;;;;14.27;2.95;;;;;;;;;;4991101;28;20426;-82
2023/04/25 01:42:58;;;;;;;17.60;3.13;;;;;;;;;;4991842;28;20436;-83
2023/04/25 01:45:32;;;;;;;15.57;2.85;;;;;;;;;;4991457;28;20429;-82
2023/04/25 01:48:00;;;;;;;17.10;2.88;;;;;;;;;;4991271;28;21097;-81
2023/04/25 01:50:29;;;;;;;17.80;3.22;;;;;;;;;;4989650;28;20811;-82
2023/04/25 01:52:57;;;;;;;17.02;3.25;;;;;;;;;;4991068;28;20414;-81
2023/04/25 01:55:31;;;;;;;15.82;3.20;;;;;;;;;;4989864;28;20421;-83
2023/04/25 01:58:08;;;;;;;18.48;3.35;;;;;;;;;;5006405;28;20430;-81
2023/04/25 02:01:00;;;;;;;14.75;2.80;;;;;;;;;;4982156;28;20436;-81
2023/04/25 02:03:41;;;;;;;20.88;3.40;;;;;;;;;;5001831;28;20423;-81
2023/04/25 02:06:18;;;;;;;16.37;3.93;;;;;;;;;;5005028;28;20433;-81
2023/04/25 02:08:53;;;;;;;16.95;3.35;;;;;;;;;;4998861;28;20445;-80
2023/04/25 02:11:27;;;;;;;18.60;3.42;;;;;;;;;;4988576;28;20438;-82
2023/04/25 02:14:33;;;;;;;18.13;3.60;;;;;;;;;;4965843;28;20427;-82
2023/04/25 02:17:15;;;;;;;18.88;3.55;;;;;;;;;;4948826;28;20428;-81
2023/04/25 02:19:48;;;;;;;21.20;3.88;;;;;;;;;;4972142;28;20445;-82
2023/04/25 02:22:16;;;;;;;17.58;3.15;;;;;;;;;;4995313;28;20439;-81
2023/04/25 02:24:49;;;;;;;17.00;3.40;;;;;;;;;;4983222;28;20791;-81
2023/04/25 02:27:23;;;;;;;15.60;3.08;;;;;;;;;;4982901;28;20426;-81
2023/04/25 02:29:51;;;;;;;20.83;3.50;;;;;;;;;;4988122;28;20449;-82
2023/04/25 02:32:24;;;;;;;20.55;3.67;;;;;;;;;;5004992;28;20449;-82
2023/04/25 02:34:52;;;;;;;17.83;3.33;;;;;;;;;;4990694;28;20429;-81
2023/04/25 02:37:20;;;;;;;15.65;3.28;;;;;;;;;;5000453;28;20430;-81
2023/04/25 02:39:48;;;;;;;20.77;3.55;;;;;;;;;;4989877;28;20426;-81
2023/04/25 02:42:16;;;;;;;19.60;3.78;;;;;;;;;;4993851;28;20443;-81
2023/04/25 02:44:45;;;;;;;16.70;2.92;;;;;;;;;;4991869;28;20433;-81
2023/04/25 02:47:12;;;;;;;17.20;3.15;;;;;;;;;;4991593;28;20438;-82
2023/04/25 02:49:46;;;;;;;21.92;3.40;;;;;;;;;;5008032;28;20433;-82
2023/04/25 02:52:13;;;;;;;18.35;3.22;;;;;;;;;;4989613;28;20925;-82
2023/04/25 02:54:53;;;;;;;15.02;3.10;;;;;;;;;;4995608;28;20969;-83
2023/04/25 02:57:22;;;;;;;16.20;3.55;;;;;;;;;;4989026;28;20937;-81
2023/04/25 02:59:51;;;;;;;17.70;3.20;;;;;;;;;;5009724;28;20453;-82
2023/04/25 03:02:18;;;;;;;19.95;3.40;;;;;;;;;;5004831;28;20445;-81
2023/04/25 03:04:51;;;;;;;16.65;3.28;;;;;;;;;;4993955;28;20433;-82
2023/04/25 03:07:19;;;;;;;15.90;3.15;;;;;;;;;;4994405;28;20434;-82
2023/04/25 03:09:49;;;;;;;17.67;3.05;;;;;;;;;;5000938;28;20431;-82
2023/04/25 03:12:17;;;;;;;18.08;3.28;;;;;;;;;;5009736;28;20449;-82
2023/04/25 03:14:45;;;;;;;16.50;3.47;;;;;;;;;;4993587;28;20437;-82
2023/04/25 03:17:14;;;;;;;21.20;3.15;;;;;;;;;;5008637;28;20442;-80
2023/04/25 03:19:47;;;;;;;19.27;3.63;;;;;;;;;;4993729;28;20434;-81
2023/04/25 03:22:15;;;;;;;17.50;3.50;;;;;;;;;;4994288;28;20437;-81
2023/04/25 03:24:48;;;;;;;20.20;3.70;;;;;;;;;;5009884;28;20449;-80
2023/04/25 03:27:15;;;;;;;19.45;3.38;;;;;;;;;;4991854;28;20430;-81
2023/04/25 03:29:43;;;;;;;19.73;3.47;;;;;;;;;;4991773;28;20438;-82
2023/04/25 03:32:17;;;;;;;17.65;3.22;;;;;;;;;;5008533;28;20935;-82
2023/04/25 03:34:46;;;;;;;19.25;3.28;;;;;;;;;;5011927;28;20425;-80
2023/04/25 03:37:14;;;;;;;18.52;3.03;;;;;;;;;;4983820;28;20438;-82
2023/04/25 03:39:47;;;;;;;17.48;3.45;;;;;;;;;;5008618;28;20446;-81
2023/04/25 03:42:14;;;;;;;18.90;3.80;;;;;;;;;;5009602;28;20918;-81
2023/04/25 03:44:44;;;;;;;14.83;3.20;;;;;;;;;;4980180;28;20433;-81
2023/04/25 03:47:18;;;;;;;19.30;3.67;;;;;;;;;;5008353;28;20775;-81
2023/04/25 03:49:48;;;;;;;15.48;2.95;;;;;;;;;;5004076;28;20427;-81
2023/04/25 03:52:23;;;;;;;16.00;3.30;;;;;;;;;;4983903;28;20422;-82
2023/04/25 03:54:56;;;;;;;18.58;3.58;;;;;;;;;;5001160;28;20422;-81
2023/04/25 03:57:29;;;;;;;18.35;3.47;;;;;;;;;;4991797;28;20426;-81
2023/04/25 03:59:57;;;;;;;17.52;3.60;;;;;;;;;;5003764;28;20441;-80
2023/04/25 04:02:41;;;;;;;13.88;3.05;;;;;;;;;;5000608;28;20895;-81
2023/04/25 04:05:10;;;;;;;18.52;3.65;;;;;;;;;;5008116;28;20435;-81
2023/04/25 04:07:44;;;;;;;22.87;3.77;;;;;;;;;;5007112;28;20441;-80
2023/04/25 04:10:13;;;;;;;20.65;3.40;;;;;;;;;;4990924;28;20775;-81
2023/04/25 04:12:41;;;;;;;16.00;3.47;;;;;;;;;;5007085;28;20815;-81
2023/04/25 04:15:10;;;;;;;19.25;3.40;;;;;;;;;;4990293;28;20918;-83
2023/04/25 04:17:46;;;;;;;15.97;3.53;;;;;;;;;;5008017;28;20422;-81
2023/04/25 04:20:19;;;;;;;17.33;2.88;;;;;;;;;;4991614;28;20418;-81
2023/04/25 04:22:47;;;;;;;17.55;3.65;;;;;;;;;;5008664;28;20429;-81
2023/04/25 04:25:16;;;;;;;18.50;3.05;;;;;;;;;;4990626;28;20926;-81
2023/04/25 04:28:07;;;;;;;23.45;4.13;;;;;;;;;;4992207;28;20445;-81
2023/04/25 04:30:50;;;;;;;15.25;3.60;;;;;;;;;;4991617;28;20807;-81
2023/04/25 04:33:25;;;;;;;17.77;3.30;;;;;;;;;;5009034;28;20426;-80
2023/04/25 04:35:58;;;;;;;22.17;3.25;;;;;;;;;;4992635;28;20429;-81
2023/04/25 04:38:32;;;;;;;18.63;3.13;;;;;;;;;;5002502;28;20426;-80
2023/04/25 04:41:05;;;;;;;16.80;3.33;;;;;;;;;;4984008;28;20762;-81
2023/04/25 04:43:55;;;;;;;16.38;3.05;;;;;;;;;;4992166;28;20424;-81
2023/04/25 04:46:31;;;;;;;13.77;2.95;;;;;;;;;;4999641;28;20438;-82
2023/04/25 04:49:19;;;;;;;13.43;2.85;;;;;;;;;;4992110;28;20426;-82
2023/04/25 04:52:16;;;;;;;18.65;3.22;;;;;;;;;;4980551;28;20773;-81
2023/04/25 04:54:55;;;;;;;15.80;3.03;;;;;;;;;;5009204;28;20446;-80
2023/04/25 04:57:48;;;;;;;15.60;3.00;;;;;;;;;;4988805;28;20433;-80
2023/04/25 05:00:34;;;;;;;17.42;3.17;;;;;;;;;;5007201;28;20431;-81
2023/04/25 05:03:13;;;;;;;13.95;3.03;;;;;;;;;;4980301;28;20467;-81
2023/04/25 05:06:06;;;;;;;15.18;3.10;;;;;;;;;;4997055;28;20775;-82
2023/04/25 05:09:04;;;;;;;16.63;3.30;;;;;;;;;;5005943;28;20434;-83
2023/04/25 05:12:04;;;;;;;12.57;2.75;;;;;;;;;;5000677;28;20926;-82
2023/04/25 05:14:40;;;;;;;16.20;2.72;;;;;;;;;;5006372;28;20434;-82
2023/04/25 05:17:36;;;;;;;14.10;2.90;;;;;;;;;;4990711;28;20451;-84
2023/04/25 05:20:24;;;;;;;19.43;3.00;;;;;;;;;;4989072;28;20953;-82
2023/04/25 05:23:21;;;;;;;12.43;2.45;;;;;;;;;;4990147;28;20441;-81
2023/04/25 05:26:13;;;;;;;13.25;2.85;;;;;;;;;;4986936;28;20438;-82
2023/04/25 05:28:52;;;;;;;16.25;2.80;;;;;;;;;;5006280;28;20446;-82
2023/04/25 05:31:37;;;;;;;16.52;2.70;;;;;;;;;;5003989;28;20815;-80
2023/04/25 05:34:14;;;;;;;14.32;2.75;;;;;;;;;;5006941;28;20526;-81
2023/04/25 05:37:00;;;;;;;18.40;3.15;;;;;;;;;;4989744;28;20906;-81
2023/04/25 05:39:37;;;;;;;19.25;3.22;;;;;;;;;;4989069;28;20434;-81
2023/04/25 05:42:28;;;;;;;15.38;2.72;;;;;;;;;;4991673;28;20433;-81
2023/04/25 05:44:56;;;;;;;11.93;2.65;;;;;;;;;;4992099;28;20445;-81
2023/04/25 05:47:43;;;;;;;13.18;3.10;;;;;;;;;;5000806;28;20442;-81
2023/04/25 05:50:21;;;;;;;12.30;2.60;;;;;;;;;;5003880;28;20435;-80
2023/04/25 05:52:58;;;;;;;15.68;2.53;;;;;;;;;;4987847;28;20438;-81
2023/04/25 05:55:34;;;;;;;13.98;2.78;;;;;;;;;;4988511;28;20437;-80
2023/04/25 05:58:12;;;;;;;10.82;2.30;;;;;;;;;;4989110;28;20418;-82
2023/04/25 06:00:41;;;;;;;15.02;2.78;;;;;;;;;;4988891;28;20435;-80
2023/04/25 06:03:15;;;;;;;15.45;2.65;;;;;;;;;;4990306;28;20417;-81
2023/04/25 06:05:48;;;;;;;12.15;2.50;;;;;;;;;;4998398;28;20426;-79
2023/04/25 06:08:20;;;;;;;12.15;2.60;;;;;;;;;;4996109;28;20432;-81
2023/04/25 06:10:49;;;;;;;14.13;2.63;;;;;;;;;;4989571;28;20426;-80
2023/04/25 06:13:17;;;;;;;12.68;2.25;;;;;;;;;;4989080;28;20783;-80
2023/04/25 06:15:45;;;;;;;13.85;2.53;;;;;;;;;;4989402;28;20430;-81
2023/04/25 06:18:13;;;;;;;14.32;2.88;;;;;;;;;;4989760;28;20427;-81
2023/04/25 06:20:46;;;;;;;12.75;2.78;;;;;;;;;;4997165;28;20426;-81
2023/04/25 06:23:19;;;;;;;13.57;2.60;;;;;;;;;;4989517;28;20422;-80
2023/04/25 06:26:08;;;;;;;12.55;2.97;;;;;;;;;;4989127;28;20426;-80
2023/04/25 06:28:39;;;;;;;8.98;2.60;;;;;;;;;;4990807;28;20767;-79
2023/04/25 06:31:12;;;;;;;12.90;2.42;;;;;;;;;;4990694;28;20426;-81
2023/04/25 06:33:48;;;;;;;15.88;3.60;;;;;;;;;;5004883;28;20783;-81
2023/04/25 06:36:24;;;;;;;16.02;4.28;;;;;;;;;;5004766;28;20426;-81
2023/04/25 06:39:03;;;;;;;14.57;3.17;;;;;;;;;;5002832;28;20414;-80
2023/04/25 06:41:35;;;;;;;12.30;3.55;;;;;;;;;;4993013;28;20430;-79
2023/04/25 06:44:15;;;;;;;15.05;3.70;;;;;;;;;;4993328;28;20410;-81
2023/04/25 06:46:53;;;;;;;12.00;3.50;;;;;;;;;;4999529;28;20428;-81
2023/04/25 06:49:25;;;;;;;16.80;4.50;;;;;;;;;;4992143;28;20422;-80
2023/04/25 06:51:58;;;;;;;12.75;2.40;;;;;;;;;;4986171;28;20418;-82
2023/04/25 06:54:31;;;;;;;13.55;3.00;;;;;;;;;;4980457;28;20451;-79
2023/04/25 06:57:18;;;;;;;13.93;3.22;;;;;;;;;;4990804;28;20429;-81
2023/04/25 06:59:51;;;;;;;13.75;2.80;;;;;;;;;;4985000;28;20449;-81
2023/04/25 07:02:18;;;;;;;17.65;4.53;;;;;;;;;;4977354;28;20430;-81
2023/04/25 07:04:55;;;;;;;12.70;2.35;;;;;;;;;;4987887;28;20422;-81
2023/04/25 07:07:23;;;;;;;10.70;2.35;;;;;;;;;;5001573;28;20434;-80
2023/04/25 07:09:55;;;;;;;13.68;3.20;;;;;;;;;;4983441;28;20496;-84
2023/04/25 07:12:30;;;;;;;13.57;2.42;;;;;;;;;;4978220;28;20433;-81
2023/04/25 07:14:58;;;;;;;12.80;3.38;;;;;;;;;;4990415;28;20899;-82
2023/04/25 07:17:32;;;;;;;11.87;3.00;;;;;;;;;;4997250;28;20771;-81
2023/04/25 07:20:00;;;;;;;13.40;3.03;;;;;;;;;;4988218;28;20416;-84
2023/04/25 07:22:33;;;;;;;10.32;2.90;;;;;;;;;;4988826;28;20426;-81
2023/04/25 07:25:06;;;;;;;12.80;3.37;;;;;;;;;;4982562;28;20422;-80
2023/04/25 07:27:41;;;;;;;13.27;2.55;;;;;;;;;;4990731;28;20425;-81
2023/04/25 07:30:18;;;;;;;11.02;2.88;;;;;;;;;;4992030;28;22136;-81
2023/04/25 07:32:46;;;;;;;11.02;2.60;;;;;;;;;;5003107;28;20904;-80
2023/04/25 07:35:14;;;;;;;15.10;2.72;;;;;;;;;;5008307;28;20425;-80
2023/04/25 07:37:47;;;;;;;10.45;2.40;;;;;;;;;;4982059;28;20422;-80
2023/04/25 07:40:18;;;;;;;12.20;2.33;;;;;;;;;;4992308;28;20913;-82
2023/04/25 07:42:58;;;;;;;13.00;2.80;;;;;;;;;;5002649;28;20511;-80
2023/04/25 07:45:43;;;;;;;12.07;2.42;;;;;;;;;;4991850;28;20418;-82
2023/04/25 07:48:18;;;;;;;10.18;2.30;;;;;;;;;;5007837;28;20415;-80
2023/04/25 07:50:53;;;;;;;12.47;2.57;;;;;;;;;;5008233;28;20449;-81
2023/04/25 07:53:25;;;;;;;10.63;2.55;;;;;;;;;;4983520;28;20438;-81
2023/04/25 07:55:58;;;;;;;12.40;2.85;;;;;;;;;;5007353;28;20767;-80
2023/04/25 07:58:30;;;;;;;9.68;2.53;;;;;;;;;;4992032;28;20422;-80
2023/04/25 08:01:01;;;;;;;10.32;2.28;;;;;;;;;;4990621;28;20763;-81
2023/04/25 08:03:35;;;;;;;9.68;1.88;;;;;;;;;;4993296;28;20426;-80
2023/04/25 08:06:07;;;;;;;13.98;2.28;;;;;;;;;;4997489;28;20768;-80
2023/04/25 08:08:50;;;;;;;13.85;2.15;;;;;;;;;;4983628;28;20450;-81
2023/04/25 08:11:30;;;;;;;8.50;1.70;;;;;;;;;;4997075;28;20785;-80
2023/04/25 08:13:59;;;;;;;7.10;1.67;;;;;;;;;;5008139;28;20481;-80
2023/04/25 08:16:33;;;;;;;11.32;1.65;;;;;;;;;;5002286;28;20418;-80
2023/04/25 08:19:02;;;;;;;9.55;1.65;;;;;;;;;;4981895;28;20426;-80
2023/04/25 08:21:35;;;;;;;11.02;1.80;;;;;;;;;;4975510;28;20419;-82
2023/04/25 08:24:06;;;;;;;9.40;1.80;;;;;;;;;;5007918;28;20418;-80
2023/04/25 08:26:41;;;;;;;9.82;1.58;;;;;;;;;;5000371;28;20422;-80
2023/04/25 08:29:18;;;;;;;8.98;1.60;;;;;;;;;;4990830;28;20410;-81
2023/04/25 08:31:46;;;;;;;12.05;3.03;;;;;;;;;;4969718;28;21293;-81
2023/04/25 08:34:15;;;;;;;11.23;2.10;;;;;;;;;;4995298;28;20431;-80
2023/04/25 08:36:48;;;;;;;9.15;2.28;;;;;;;;;;4981751;28;20426;-81
2023/04/25 08:39:34;;;;;;;9.50;1.80;;;;;;;;;;4984844;28;20428;-81
2023/04/25 08:42:22;;;;;;;10.68;2.10;;;;;;;;;;4970276;28;20427;-80
2023/04/25 08:44:53;;;;;;;12.05;2.00;;;;;;;;;;4988067;28;20456;-81
2023/04/25 08:47:23;;;;;;;9.48;2.10;;;;;;;;;;4992939;28;20449;-81
2023/04/25 08:49:56;;;;;;;9.57;1.90;;;;;;;;;;4993641;28;20442;-82
2023/04/25 08:52:32;;;;;;;10.27;1.73;;;;;;;;;;4974296;28;21898;-82
2023/04/25 08:55:01;;;;;;;10.10;2.05;;;;;;;;;;4971978;28;20429;-81
2023/04/25 08:57:34;;;;;;;13.50;1.90;;;;;;;;;;4987402;28;20432;-82
2023/04/25 09:00:05;;;;;;;7.43;1.60;;;;;;;;;;4980073;28;20421;-83
2023/04/25 09:02:36;;;;;;;5.22;1.30;;;;;;;;;;4988899;28;20992;-81
2023/04/25 09:05:05;;;;;;;6.93;1.60;;;;;;;;;;4982275;28;20432;-88
2023/04/25 09:07:38;;;;;;;6.75;1.40;;;;;;;;;;4984335;28;20441;-81
2023/04/25 09:10:06;;;;;;;8.40;1.60;;;;;;;;;;4993659;28;20431;-82
2023/04/25 09:12:37;;;;;;;7.10;1.35;;;;;;;;;;4989906;28;20455;-82
2023/04/25 09:15:10;;;;;;;7.85;1.60;;;;;;;;;;4989137;28;20426;-84
2023/04/25 09:18:01;;;;;;;6.80;1.27;;;;;;;;;;4976020;28;20445;-81
2023/04/25 09:20:42;;;;;;;5.70;1.40;;;;;;;;;;4981967;28;20430;-81
2023/04/25 09:23:15;;;;;;;9.95;2.10;;;;;;;;;;4973954;28;20439;-81
2023/04/25 09:25:49;;;;;;;6.78;1.58;;;;;;;;;;4977075;28;20438;-81
2023/04/25 09:28:16;;;;;;;8.07;1.75;;;;;;;;;;4989637;28;20449;-82
2023/04/25 09:30:55;;;;;;;9.52;1.70;;;;;;;;;;4986074;28;20432;-84
2023/04/25 09:33:43;;;;;;;9.73;2.00;;;;;;;;;;4968493;28;20431;-82
2023/04/25 09:36:16;;;;;;;9.83;1.70;;;;;;;;;;4979047;28;20445;-83
2023/04/25 09:39:16;;;;;;;12.80;2.10;;;;;;;;;;4958247;28;20418;-82
2023/04/25 09:41:54;;;;;;;8.93;2.17;;;;;;;;;;4979198;28;20425;-84
2023/04/25 09:44:24;;;;;;;7.60;1.88;;;;;;;;;;4971888;28;20414;-82
2023/04/25 09:46:59;;;;;;;6.88;1.40;;;;;;;;;;4990042;28;20438;-81
2023/04/25 09:49:29;;;;;;;10.95;1.75;;;;;;;;;;4992153;28;20446;-82
2023/04/25 09:52:04;;;;;;;8.65;1.60;;;;;;;;;;4976109;28;20432;-80
2023/04/25 09:54:38;;;;;;;9.25;1.65;;;;;;;;;;4982235;28;20445;-82
2023/04/25 09:57:16;;;;;;;10.40;1.63;;;;;;;;;;4989423;28;20425;-81
2023/04/25 09:59:45;;;;;;;9.98;1.80;;;;;;;;;;4992937;28;20429;-81
2023/04/25 10:02:15;;;;;;;9.52;1.90;;;;;;;;;;4996700;28;21060;-80
2023/04/25 10:04:45;;;;;;;8.43;1.70;;;;;;;;;;4977905;28;20441;-81
2023/04/25 10:07:25;;;;;;;6.43;1.63;;;;;;;;;;4987891;28;20424;-81
2023/04/25 10:10:00;;;;;;;15.95;1.80;;;;;;;;;;4988888;28;20986;-80
2023/04/25 10:12:28;;;;;;;6.80;1.70;;;;;;;;;;4970172;28;20432;-80
2023/04/25 10:15:01;;;;;;;10.47;1.90;;;;;;;;;;4988692;28;21704;-81
2023/04/25 10:17:31;;;;;;;12.55;1.67;;;;;;;;;;4985097;28;20465;-81
2023/04/25 10:20:04;;;;;;;9.88;1.85;;;;;;;;;;4980897;28;21369;-81
2023/04/25 10:22:35;;;;;;;9.43;1.60;;;;;;;;;;4971456;28;20414;-81
2023/04/25 10:25:04;;;;;;;9.48;1.80;;;;;;;;;;4978144;28;20420;-79
2023/04/25 10:27:31;;;;;;;8.50;1.47;;;;;;;;;;4968590;28;20443;-81
2023/04/25 10:30:04;;;;;;;5.17;1.33;;;;;;;;;;4984754;28;20442;-80
2023/04/25 10:32:33;;;;;;;7.45;1.23;;;;;;;;;;4966909;28;20428;-82
2023/04/25 10:35:11;;;;;;;6.32;1.20;;;;;;;;;;4987594;28;20426;-82
2023/04/25 10:37:38;;;;;;;9.98;1.65;;;;;;;;;;4967463;28;20421;-81
2023/04/25 10:40:09;;;;;;;6.63;1.38;;;;;;;;;;4992725;28;20449;-79
2023/04/25 10:42:37;;;;;;;3.58;1.10;;;;;;;;;;4970100;28;20458;-82
2023/04/25 10:45:06;;;;;;;4.88;1.02;;;;;;;;;;4991825;28;21128;-79
2023/04/25 10:47:45;;;;;;;7.93;1.45;;;;;;;;;;4986823;28;20428;-80
2023/04/25 10:50:18;;;;;;;5.90;1.30;;;;;;;;;;4980542;28;20441;-80
2023/04/25 10:52:46;;;;;;;7.72;1.50;;;;;;;;;;4968586;28;20436;-84
2023/04/25 10:55:13;;;;;;;7.05;1.23;;;;;;;;;;4988201;28;20440;-82
2023/04/25 10:57:49;;;;;;;11.13;1.58;;;;;;;;;;4968328;28;20434;-80
2023/04/25 11:00:18;;;;;;;5.30;1.30;;;;;;;;;;4971049;28;20440;-83
2023/04/25 11:02:53;;;;;;;7.05;1.45;;;;;;;;;;4973481;28;20436;-83
2023/04/25 11:05:23;;;;;;;6.85;1.30;;;;;;;;;;4971086;28;20412;-86
2023/04/25 11:07:52;;;;;;;5.72;1.30;;;;;;;;;;4992244;28;20443;-85
2023/04/25 11:10:20;;;;;;;6.53;1.35;;;;;;;;;;4977038;28;20461;-82
2023/04/25 11:12:48;;;;;;;5.55;1.25;;;;;;;;;;4988462;28;20434;-82
2023/04/25 11:15:16;;;;;;;6.47;1.10;;;;;;;;;;4974622;28;20425;-82
2023/04/25 11:17:49;;;;;;;7.63;1.43;;;;;;;;;;4967110;28;21713;-81
2023/04/25 11:20:18;;;;;;;7.70;1.17;;;;;;;;;;4968014;28;20422;-84
2023/04/25 11:22:51;;;;;;;7.25;1.30;;;;;;;;;;4975236;28;20791;-82
2023/04/25 11:25:18;;;;;;;8.45;1.33;;;;;;;;;;4992430;28;20431;-82
2023/04/25 11:27:52;;;;;;;6.65;1.17;;;;;;;;;;4997135;28;20426;-81
2023/04/25 11:30:21;;;;;;;5.40;1.35;;;;;;;;;;4984769;28;20438;-82
2023/04/25 11:32:54;;;;;;;6.90;1.40;;;;;;;;;;4960367;28;20429;-82
2023/04/25 11:35:25;;;;;;;5.80;1.00;;;;;;;;;;4986758;28;20422;-80
2023/04/25 11:37:53;;;;;;;6.97;0.93;;;;;;;;;;4984910;28;20443;-81
2023/04/25 11:40:26;;;;;;;6.78;0.95;;;;;;;;;;4989151;28;20424;-80
2023/04/25 11:43:00;;;;;;;5.35;0.90;;;;;;;;;;4993139;28;20426;-81
2023/04/25 11:45:29;;;;;;;7.50;1.23;;;;;;;;;;4996480;28;20442;-81
2023/04/25 11:48:03;;;;;;;6.07;1.17;;;;;;;;;;4998396;28;20438;-82
2023/04/25 11:50:32;;;;;;;5.30;0.90;;;;;;;;;;4984775;28;20428;-83
2023/04/25 11:53:06;;;;;;;8.63;1.17;;;;;;;;;;4995160;28;20473;-81
2023/04/25 11:55:33;;;;;;;6.00;1.00;;;;;;;;;;4996410;28;20890;-82
2023/04/25 11:58:02;;;;;;;4.57;1.17;;;;;;;;;;4983142;28;20428;-84
2023/04/25 12:00:35;;;;;;;2.20;0.70;;;;;;;;;;4996179;28;20428;-83
2023/04/25 12:03:10;;;;;;;4.53;0.88;;;;;;;;;;4987711;28;20971;-82
2023/04/25 12:05:45;;;;;;;5.20;0.82;;;;;;;;;;4981230;28;20417;-82
2023/04/25 12:08:14;;;;;;;5.17;1.00;;;;;;;;;;4983292;28;20415;-83
2023/04/25 12:10:42;;;;;;;5.73;0.90;;;;;;;;;;4988372;28;20467;-82
2023/04/25 12:13:23;;;;;;;5.20;0.98;;;;;;;;;;4995387;28;20441;-83
2023/04/25 12:15:56;;;;;;;4.88;1.00;;;;;;;;;;4975880;28;20422;-84
2023/04/25 12:18:25;;;;;;;5.97;1.20;;;;;;;;;;4994254;28;20443;-81
2023/04/25 12:20:59;;;;;;;5.40;1.20;;;;;;;;;;4981369;28;22335;-87
2023/04/25 12:23:28;;;;;;;5.70;1.13;;;;;;;;;;4973850;28;20871;-81
2023/04/25 12:26:02;;;;;;;5.13;1.10;;;;;;;;;;4972626;28;21086;-82
2023/04/25 12:28:33;;;;;;;6.70;1.30;;;;;;;;;;4992557;28;20439;-81
2023/04/25 12:31:06;;;;;;;6.28;1.20;;;;;;;;;;4986969;28;20824;-80
2023/04/25 12:33:39;;;;;;;6.70;1.20;;;;;;;;;;4954917;28;20433;-82
2023/04/25 12:36:13;;;;;;;7.07;1.52;;;;;;;;;;4984420;28;20434;-81
2023/04/25 12:38:42;;;;;;;4.18;1.15;;;;;;;;;;4993130;28;20424;-80
2023/04/25 12:41:10;;;;;;;6.57;1.42;;;;;;;;;;4964604;28;20906;-81
2023/04/25 12:43:43;;;;;;;9.23;1.35;;;;;;;;;;4976298;28;20415;-81
2023/04/25 12:46:15;;;;;;;9.70;1.40;;;;;;;;;;4990656;28;20834;-81
2023/04/25 12:48:48;;;;;;;8.05;1.20;;;;;;;;;;4974945;28;20477;-82
2023/04/25 12:51:17;;;;;;;6.15;1.13;;;;;;;;;;4989167;28;20907;-81
2023/04/25 12:53:50;;;;;;;9.15;1.75;;;;;;;;;;4971482;28;20442;-80
2023/04/25 12:56:23;;;;;;;5.28;1.15;;;;;;;;;;4979861;28;20440;-86
2023/04/25 12:58:56;;;;;;;7.57;1.05;;;;;;;;;;4982998;28;21421;-80
2023/04/25 13:01:24;;;;;;;10.70;1.70;;;;;;;;;;4985940;28;20437;-80
2023/04/25 13:03:53;;;;;;;8.95;1.00;;;;;;;;;;4996413;28;20431;-83
2023/04/25 13:06:23;;;;;;;4.15;0.88;;;;;;;;;;4979157;28;20415;-84
2023/04/25 13:08:56;;;;;;;6.90;0.98;;;;;;;;;;4978605;28;20971;-80
2023/04/25 13:11:29;;;;;;;4.65;0.95;;;;;;;;;;4989557;28;21282;-82
2023/04/25 13:13:56;;;;;;;4.70;1.00;;;;;;;;;;4992170;28;20446;-82
2023/04/25 13:16:29;;;;;;;5.72;0.95;;;;;;;;;;4975026;28;20426;-80
2023/04/25 13:18:59;;;;;;;7.63;1.30;;;;;;;;;;4981634;28;21068;-83
2023/04/25 13:21:33;;;;;;;6.22;1.10;;;;;;;;;;4980922;28;22261;-81
2023/04/25 13:24:01;;;;;;;6.65;1.25;;;;;;;;;;4988676;28;20430;-81
2023/04/25 13:26:29;;;;;;;4.82;0.95;;;;;;;;;;4986982;28;21139;-81
2023/04/25 13:29:03;;;;;;;5.53;1.27;;;;;;;;;;4974473;28;21089;-81
2023/04/25 13:31:36;;;;;;;4.82;1.20;;;;;;;;;;4970553;28;20418;-82
2023/04/25 13:34:08;;;;;;;8.15;1.27;;;;;;;;;;4966750;28;20425;-81
2023/04/25 13:36:43;;;;;;;7.63;1.27;;;;;;;;;;4972311;28;20764;-82
2023/04/25 13:39:12;;;;;;;7.97;1.13;;;;;;;;;;4975261;28;20420;-82
2023/04/25 13:41:44;;;;;;;5.63;1.38;;;;;;;;;;4988661;28;21126;-82
2023/04/25 13:44:12;;;;;;;6.47;1.20;;;;;;;;;;4972454;28;20406;-82
2023/04/25 13:46:46;;;;;;;5.40;1.00;;;;;;;;;;4988738;28;20436;-83
2023/04/25 13:49:14;;;;;;;6.07;1.27;;;;;;;;;;4979392;28;21763;-81
2023/04/25 13:51:43;;;;;;;5.60;1.20;;;;;;;;;;4980136;28;20417;-82
2023/04/25 13:54:10;;;;;;;5.60;1.00;;;;;;;;;;4989799;28;20430;-84
2023/04/25 13:56:38;;;;;;;5.97;0.93;;;;;;;;;;4993240;28;20433;-86
2023/04/25 13:59:06;;;;;;;4.83;1.30;;;;;;;;;;4974482;28;20414;-82
2023/04/25 14:01:39;;;;;;;5.93;1.15;;;;;;;;;;4977627;28;20448;-81
2023/04/25 14:04:07;;;;;;;7.33;1.43;;;;;;;;;;4978638;28;20402;-83
2023/04/25 14:06:35;;;;;;;5.37;1.23;;;;;;;;;;4972381;28;20648;-82
2023/04/25 14:09:06;;;;;;;6.22;1.52;;;;;;;;;;4977166;28;20424;-83
2023/04/25 14:11:39;;;;;;;8.20;1.52;;;;;;;;;;4970831;28;20434;-81
2023/04/25 14:14:13;;;;;;;10.40;1.80;;;;;;;;;;4977456;28;21875;-82
2023/04/25 14:16:47;;;;;;;9.57;1.80;;;;;;;;;;4973382;28;20436;-80
2023/04/25 14:19:15;;;;;;;12.75;1.67;;;;;;;;;;4984631;28;20425;-81
2023/04/25 14:21:48;;;;;;;8.25;1.60;;;;;;;;;;4970124;28;20434;-82
2023/04/25 14:24:17;;;;;;;7.18;1.45;;;;;;;;;;4974820;28;20417;-84
2023/04/25 14:26:50;;;;;;;7.03;1.25;;;;;;;;;;4984549;28;21210;-84
2023/04/25 14:29:18;;;;;;;8.10;1.55;;;;;;;;;;4972006;28;20891;-83
2023/04/25 14:31:51;;;;;;;8.25;1.27;;;;;;;;;;4966657;28;20428;-84
2023/04/25 14:34:18;;;;;;;8.23;1.52;;;;;;;;;;4988051;28;20430;-83
2023/04/25 14:36:52;;;;;;;5.25;1.50;;;;;;;;;;4979320;28;20920;-82
2023/04/25 14:39:21;;;;;;;4.40;1.23;;;;;;;;;;4978092;28;20437;-84
2023/04/25 14:41:53;;;;;;;5.22;1.58;;;;;;;;;;4987310;28;20444;-83
2023/04/25 14:44:21;;;;;;;6.82;1.40;;;;;;;;;;4989949;28;20911;-84
2023/04/25 14:46:54;;;;;;;6.00;1.30;;;;;;;;;;4988981;28;20426;-84
2023/04/25 14:49:22;;;;;;;6.57;1.55;;;;;;;;;;4973951;28;20420;-83
2023/04/25 14:51:50;;;;;;;8.07;1.63;;;;;;;;;;4974064;28;20410;-83
2023/04/25 14:54:17;;;;;;;5.00;1.50;;;;;;;;;;4970296;28;21179;-82
2023/04/25 14:56:52;;;;;;;8.25;1.75;;;;;;;;;;4989617;28;20442;-83
2023/04/25 14:59:25;;;;;;;6.43;1.50;;;;;;;;;;4980224;28;20434;-81
2023/04/25 15:01:53;;;;;;;6.55;1.50;;;;;;;;;;4976499;28;20418;-84
2023/04/25 15:04:25;;;;;;;6.65;1.40;;;;;;;;;;4979457;28;20434;-83
2023/04/25 15:06:59;;;;;;;6.18;1.33;;;;;;;;;;4979623;28;21062;-82
2023/04/25 15:09:26;;;;;;;7.30;1.58;;;;;;;;;;4992322;28;20428;-82